sensor_id;sensor_type;location;lat;lon;timestamp;temperature;humidity
43524;DHT22;29120;52.006;6.020;2023-05-10T00:02:01;14.50;99.90
43524;DHT22;29120;52.006;6.020;2023-05-10T00:04:27;14.50;99.90
43524;DHT22;29120;52.006;6.020;2023-05-10T00:06:53;14.50;99.90
43524;DHT22;29120;52.006;6.020;2023-05-10T00:09:18;14.40;99.90
43524;DHT22;29120;52.006;6.020;2023-05-10T00:11:44;14.50;99.90
43524;DHT22;29120;52.006;6.020;2023-05-10T00:14:11;14.50;99.90
43524;DHT22;29120;52.006;6.020;2023-05-10T00:16:36;14.50;99.90
43524;DHT22;29120;52.006;6.020;2023-05-10T00:19:02;14.50;99.90
43524;DHT22;29120;52.006;6.020;2023-05-10T00:21:27;14.50;99.90
43524;DHT22;29120;52.006;6.020;2023-05-10T00:23:53;14.50;99.90
43524;DHT22;29120;52.006;6.020;2023-05-10T00:26:19;14.50;99.90
43524;DHT22;29120;52.006;6.020;2023-05-10T00:28:45;14.50;99.90
43524;DHT22;29120;52.006;6.020;2023-05-10T00:31:10;14.60;99.90
43524;DHT22;29120;52.006;6.020;2023-05-10T00:33:35;14.50;99.90
43524;DHT22;29120;52.006;6.020;2023-05-10T00:36:01;14.50;99.90
43524;DHT22;29120;52.006;6.020;2023-05-10T00:38:26;14.60;99.90
43524;DHT22;29120;52.006;6.020;2023-05-10T00:40:52;14.60;99.90
43524;DHT22;29120;52.006;6.020;2023-05-10T00:43:17;14.60;99.90
43524;DHT22;29120;52.006;6.020;2023-05-10T00:45:43;14.60;99.90
43524;DHT22;29120;52.006;6.020;2023-05-10T00:48:08;14.50;99.90
43524;DHT22;29120;52.006;6.020;2023-05-10T00:50:34;14.60;99.90
43524;DHT22;29120;52.006;6.020;2023-05-10T00:53:00;14.60;99.90
43524;DHT22;29120;52.006;6.020;2023-05-10T00:55:25;14.30;99.90
43524;DHT22;29120;52.006;6.020;2023-05-10T00:57:52;14.60;99.90
43524;DHT22;29120;52.006;6.020;2023-05-10T01:00:18;14.60;99.90
43524;DHT22;29120;52.006;6.020;2023-05-10T01:02:44;14.60;99.90
43524;DHT22;29120;52.006;6.020;2023-05-10T01:05:10;14.60;99.90
43524;DHT22;29120;52.006;6.020;2023-05-10T01:07:35;14.60;99.90
43524;DHT22;29120;52.006;6.020;2023-05-10T01:10:01;14.60;99.90
43524;DHT22;29120;52.006;6.020;2023-05-10T01:12:26;14.60;99.90
43524;DHT22;29120;52.006;6.020;2023-05-10T01:14:52;14.60;99.90
43524;DHT22;29120;52.006;6.020;2023-05-10T01:17:18;14.60;99.90
43524;DHT22;29120;52.006;6.020;2023-05-10T01:19:43;14.60;99.90
43524;DHT22;29120;52.006;6.020;2023-05-10T01:24:40;14.60;99.90
43524;DHT22;29120;52.006;6.020;2023-05-10T01:27:18;14.60;99.90
43524;DHT22;29120;52.006;6.020;2023-05-10T01:35:16;14.60;99.90
43524;DHT22;29120;52.006;6.020;2023-05-10T01:37:44;14.60;99.90
43524;DHT22;29120;52.006;6.020;2023-05-10T01:40:23;14.60;99.90
43524;DHT22;29120;52.006;6.020;2023-05-10T01:42:52;14.60;99.90
43524;DHT22;29120;52.006;6.020;2023-05-10T01:45:24;14.60;99.90
43524;DHT22;29120;52.006;6.020;2023-05-10T01:47:58;14.60;99.90
43524;DHT22;29120;52.006;6.020;2023-05-10T01:50:28;14.60;99.90
43524;DHT22;29120;52.006;6.020;2023-05-10T01:52:55;14.60;99.90
43524;DHT22;29120;52.006;6.020;2023-05-10T01:55:21;14.60;99.90
43524;DHT22;29120;52.006;6.020;2023-05-10T01:57:48;14.60;99.90
43524;DHT22;29120;52.006;6.020;2023-05-10T02:00:16;14.60;99.90
43524;DHT22;29120;52.006;6.020;2023-05-10T02:02:46;14.60;99.90
43524;DHT22;29120;52.006;6.020;2023-05-10T02:05:12;14.70;99.90
43524;DHT22;29120;52.006;6.020;2023-05-10T02:07:38;14.70;99.90
43524;DHT22;29120;52.006;6.020;2023-05-10T02:10:04;14.60;99.90
43524;DHT22;29120;52.006;6.020;2023-05-10T02:12:31;14.70;99.90
43524;DHT22;29120;52.006;6.020;2023-05-10T02:14:57;14.70;99.90
43524;DHT22;29120;52.006;6.020;2023-05-10T02:17:23;14.70;99.90
43524;DHT22;29120;52.006;6.020;2023-05-10T02:19:50;14.70;99.90
43524;DHT22;29120;52.006;6.020;2023-05-10T02:22:16;14.70;99.90
43524;DHT22;29120;52.006;6.020;2023-05-10T02:24:42;14.70;99.90
43524;DHT22;29120;52.006;6.020;2023-05-10T02:27:08;14.70;99.90
43524;DHT22;29120;52.006;6.020;2023-05-10T02:29:34;14.70;99.90
43524;DHT22;29120;52.006;6.020;2023-05-10T02:32:00;14.70;99.90
43524;DHT22;29120;52.006;6.020;2023-05-10T02:34:26;14.70;99.90
43524;DHT22;29120;52.006;6.020;2023-05-10T02:36:53;14.70;99.90
43524;DHT22;29120;52.006;6.020;2023-05-10T02:39:19;14.70;99.90
43524;DHT22;29120;52.006;6.020;2023-05-10T02:41:44;14.70;99.90
43524;DHT22;29120;52.006;6.020;2023-05-10T02:44:10;14.70;99.90
43524;DHT22;29120;52.006;6.020;2023-05-10T02:46:36;14.70;99.90
43524;DHT22;29120;52.006;6.020;2023-05-10T02:49:02;14.80;99.90
43524;DHT22;29120;52.006;6.020;2023-05-10T02:51:30;14.80;99.90
43524;DHT22;29120;52.006;6.020;2023-05-10T02:54:01;14.70;99.90
43524;DHT22;29120;52.006;6.020;2023-05-10T02:56:30;14.70;99.90
43524;DHT22;29120;52.006;6.020;2023-05-10T02:58:56;14.70;99.90
43524;DHT22;29120;52.006;6.020;2023-05-10T03:01:22;14.70;99.90
43524;DHT22;29120;52.006;6.020;2023-05-10T03:03:47;14.70;99.90
43524;DHT22;29120;52.006;6.020;2023-05-10T03:06:13;14.70;99.90
43524;DHT22;29120;52.006;6.020;2023-05-10T03:08:38;14.60;99.90
43524;DHT22;29120;52.006;6.020;2023-05-10T03:11:22;14.60;99.90
43524;DHT22;29120;52.006;6.020;2023-05-10T03:13:56;14.60;99.90
43524;DHT22;29120;52.006;6.020;2023-05-10T03:16:23;14.60;99.90
43524;DHT22;29120;52.006;6.020;2023-05-10T03:19:12;14.60;99.90
43524;DHT22;29120;52.006;6.020;2023-05-10T03:21:36;14.60;99.90
43524;DHT22;29120;52.006;6.020;2023-05-10T03:24:05;14.60;99.90
43524;DHT22;29120;52.006;6.020;2023-05-10T03:26:32;14.60;99.90
43524;DHT22;29120;52.006;6.020;2023-05-10T03:28:57;14.60;99.90
43524;DHT22;29120;52.006;6.020;2023-05-10T03:31:24;14.50;99.90
43524;DHT22;29120;52.006;6.020;2023-05-10T03:33:50;14.50;99.90
43524;DHT22;29120;52.006;6.020;2023-05-10T03:36:16;14.50;99.90
43524;DHT22;29120;52.006;6.020;2023-05-10T03:38:42;14.40;99.90
43524;DHT22;29120;52.006;6.020;2023-05-10T03:41:07;14.50;99.90
43524;DHT22;29120;52.006;6.020;2023-05-10T03:43:32;14.40;99.90
43524;DHT22;29120;52.006;6.020;2023-05-10T03:45:58;14.40;99.90
43524;DHT22;29120;52.006;6.020;2023-05-10T03:48:23;14.40;99.90
43524;DHT22;29120;52.006;6.020;2023-05-10T03:50:49;14.50;99.90
43524;DHT22;29120;52.006;6.020;2023-05-10T03:53:15;14.50;99.90
43524;DHT22;29120;52.006;6.020;2023-05-10T03:55:40;14.40;99.90
43524;DHT22;29120;52.006;6.020;2023-05-10T03:58:06;14.30;99.90
43524;DHT22;29120;52.006;6.020;2023-05-10T04:00:31;14.30;99.90
43524;DHT22;29120;52.006;6.020;2023-05-10T04:02:57;14.30;99.90
43524;DHT22;29120;52.006;6.020;2023-05-10T04:05:23;14.30;99.90
43524;DHT22;29120;52.006;6.020;2023-05-10T04:07:48;14.30;99.90
43524;DHT22;29120;52.006;6.020;2023-05-10T04:10:15;14.30;99.90
43524;DHT22;29120;52.006;6.020;2023-05-10T04:12:41;14.20;99.90
43524;DHT22;29120;52.006;6.020;2023-05-10T04:15:07;14.30;99.90
43524;DHT22;29120;52.006;6.020;2023-05-10T04:17:32;14.20;99.90
43524;DHT22;29120;52.006;6.020;2023-05-10T04:19:58;14.30;99.90
43524;DHT22;29120;52.006;6.020;2023-05-10T04:22:23;14.20;99.90
43524;DHT22;29120;52.006;6.020;2023-05-10T04:24:49;14.20;99.90
43524;DHT22;29120;52.006;6.020;2023-05-10T04:27:14;14.20;99.90
43524;DHT22;29120;52.006;6.020;2023-05-10T04:29:40;14.10;99.90
43524;DHT22;29120;52.006;6.020;2023-05-10T04:32:05;14.10;99.90
43524;DHT22;29120;52.006;6.020;2023-05-10T04:34:30;14.10;99.90
43524;DHT22;29120;52.006;6.020;2023-05-10T04:36:56;14.10;99.90
43524;DHT22;29120;52.006;6.020;2023-05-10T04:39:21;14.10;99.90
43524;DHT22;29120;52.006;6.020;2023-05-10T04:41:47;14.10;99.90
43524;DHT22;29120;52.006;6.020;2023-05-10T04:44:12;14.10;99.90
43524;DHT22;29120;52.006;6.020;2023-05-10T04:46:38;14.10;99.90
43524;DHT22;29120;52.006;6.020;2023-05-10T04:49:03;14.10;99.90
43524;DHT22;29120;52.006;6.020;2023-05-10T04:51:28;14.10;99.90
43524;DHT22;29120;52.006;6.020;2023-05-10T04:53:54;14.10;99.90
43524;DHT22;29120;52.006;6.020;2023-05-10T04:56:20;14.20;99.90
43524;DHT22;29120;52.006;6.020;2023-05-10T04:58:47;14.10;99.90
43524;DHT22;29120;52.006;6.020;2023-05-10T05:01:12;14.10;99.90
43524;DHT22;29120;52.006;6.020;2023-05-10T05:03:38;14.10;99.90
43524;DHT22;29120;52.006;6.020;2023-05-10T05:06:03;14.10;99.90
43524;DHT22;29120;52.006;6.020;2023-05-10T05:08:29;14.10;99.90
43524;DHT22;29120;52.006;6.020;2023-05-10T05:10:54;14.10;99.90
43524;DHT22;29120;52.006;6.020;2023-05-10T05:13:20;14.10;99.90
43524;DHT22;29120;52.006;6.020;2023-05-10T05:15:45;14.10;99.90
43524;DHT22;29120;52.006;6.020;2023-05-10T05:18:11;14.10;99.90
43524;DHT22;29120;52.006;6.020;2023-05-10T05:20:36;14.10;99.90
43524;DHT22;29120;52.006;6.020;2023-05-10T05:23:02;14.10;99.90
43524;DHT22;29120;52.006;6.020;2023-05-10T05:25:27;14.10;99.90
43524;DHT22;29120;52.006;6.020;2023-05-10T05:27:53;14.10;99.90
43524;DHT22;29120;52.006;6.020;2023-05-10T05:30:18;14.20;99.90
43524;DHT22;29120;52.006;6.020;2023-05-10T05:32:44;14.20;99.90
43524;DHT22;29120;52.006;6.020;2023-05-10T05:35:09;14.20;99.90
43524;DHT22;29120;52.006;6.020;2023-05-10T05:37:35;14.30;99.90
43524;DHT22;29120;52.006;6.020;2023-05-10T05:40:00;14.30;99.90
43524;DHT22;29120;52.006;6.020;2023-05-10T05:42:26;14.30;99.90
43524;DHT22;29120;52.006;6.020;2023-05-10T05:44:52;14.30;99.90
43524;DHT22;29120;52.006;6.020;2023-05-10T05:47:17;14.40;99.90
43524;DHT22;29120;52.006;6.020;2023-05-10T05:49:43;14.40;99.90
43524;DHT22;29120;52.006;6.020;2023-05-10T05:52:11;14.40;99.90
43524;DHT22;29120;52.006;6.020;2023-05-10T05:54:36;14.40;99.90
43524;DHT22;29120;52.006;6.020;2023-05-10T05:57:01;14.50;99.90
43524;DHT22;29120;52.006;6.020;2023-05-10T05:59:27;14.50;99.90
43524;DHT22;29120;52.006;6.020;2023-05-10T06:01:53;14.60;99.90
43524;DHT22;29120;52.006;6.020;2023-05-10T06:04:18;14.70;99.90
43524;DHT22;29120;52.006;6.020;2023-05-10T06:06:44;14.80;99.90
43524;DHT22;29120;52.006;6.020;2023-05-10T06:09:09;14.80;99.90
43524;DHT22;29120;52.006;6.020;2023-05-10T06:11:35;14.90;99.90
43524;DHT22;29120;52.006;6.020;2023-05-10T06:14:01;14.90;99.90
43524;DHT22;29120;52.006;6.020;2023-05-10T06:16:27;14.90;99.90
43524;DHT22;29120;52.006;6.020;2023-05-10T06:18:52;14.90;99.90
43524;DHT22;29120;52.006;6.020;2023-05-10T06:21:17;14.90;99.90
43524;DHT22;29120;52.006;6.020;2023-05-10T06:23:43;14.90;99.90
43524;DHT22;29120;52.006;6.020;2023-05-10T06:26:09;14.90;99.90
43524;DHT22;29120;52.006;6.020;2023-05-10T06:28:34;14.80;99.90
43524;DHT22;29120;52.006;6.020;2023-05-10T06:31:00;14.80;99.90
43524;DHT22;29120;52.006;6.020;2023-05-10T06:33:25;14.90;99.90
43524;DHT22;29120;52.006;6.020;2023-05-10T06:35:51;14.90;99.90
43524;DHT22;29120;52.006;6.020;2023-05-10T06:38:17;14.90;99.90
43524;DHT22;29120;52.006;6.020;2023-05-10T06:40:42;14.90;99.90
43524;DHT22;29120;52.006;6.020;2023-05-10T06:43:08;14.90;99.90
43524;DHT22;29120;52.006;6.020;2023-05-10T06:45:33;14.90;99.90
43524;DHT22;29120;52.006;6.020;2023-05-10T06:47:59;14.90;99.90
43524;DHT22;29120;52.006;6.020;2023-05-10T06:50:24;14.80;99.90
43524;DHT22;29120;52.006;6.020;2023-05-10T06:52:50;14.80;99.90
43524;DHT22;29120;52.006;6.020;2023-05-10T06:55:15;14.70;99.90
43524;DHT22;29120;52.006;6.020;2023-05-10T06:57:41;14.70;99.90
43524;DHT22;29120;52.006;6.020;2023-05-10T07:00:07;14.70;99.90
43524;DHT22;29120;52.006;6.020;2023-05-10T07:02:32;14.60;99.90
43524;DHT22;29120;52.006;6.020;2023-05-10T07:04:58;14.50;99.90
43524;DHT22;29120;52.006;6.020;2023-05-10T07:07:24;14.50;99.90
43524;DHT22;29120;52.006;6.020;2023-05-10T07:09:49;14.50;99.90
43524;DHT22;29120;52.006;6.020;2023-05-10T07:12:15;14.50;99.90
43524;DHT22;29120;52.006;6.020;2023-05-10T07:14:40;14.60;99.90
43524;DHT22;29120;52.006;6.020;2023-05-10T07:17:06;14.60;99.90
43524;DHT22;29120;52.006;6.020;2023-05-10T07:19:31;14.60;99.90
43524;DHT22;29120;52.006;6.020;2023-05-10T07:21:58;14.70;99.90
43524;DHT22;29120;52.006;6.020;2023-05-10T07:24:23;14.80;99.90
43524;DHT22;29120;52.006;6.020;2023-05-10T07:26:49;14.80;99.90
43524;DHT22;29120;52.006;6.020;2023-05-10T07:29:15;14.90;99.90
43524;DHT22;29120;52.006;6.020;2023-05-10T07:31:40;14.80;99.90
43524;DHT22;29120;52.006;6.020;2023-05-10T07:34:08;14.80;99.90
43524;DHT22;29120;52.006;6.020;2023-05-10T07:36:34;14.80;99.90
43524;DHT22;29120;52.006;6.020;2023-05-10T07:38:59;14.90;99.90
43524;DHT22;29120;52.006;6.020;2023-05-10T07:41:24;14.90;99.90
43524;DHT22;29120;52.006;6.020;2023-05-10T07:43:50;14.90;99.90
43524;DHT22;29120;52.006;6.020;2023-05-10T07:46:15;15.10;99.90
43524;DHT22;29120;52.006;6.020;2023-05-10T07:48:41;15.30;99.90
43524;DHT22;29120;52.006;6.020;2023-05-10T07:51:07;15.40;99.90
43524;DHT22;29120;52.006;6.020;2023-05-10T07:53:34;15.50;99.90
43524;DHT22;29120;52.006;6.020;2023-05-10T07:56:19;15.60;99.90
43524;DHT22;29120;52.006;6.020;2023-05-10T07:58:45;15.60;99.90
43524;DHT22;29120;52.006;6.020;2023-05-10T08:01:10;15.70;99.90
43524;DHT22;29120;52.006;6.020;2023-05-10T08:03:36;15.70;99.90
43524;DHT22;29120;52.006;6.020;2023-05-10T08:06:01;15.70;99.90
43524;DHT22;29120;52.006;6.020;2023-05-10T08:08:27;15.70;99.90
43524;DHT22;29120;52.006;6.020;2023-05-10T08:10:52;15.70;99.90
43524;DHT22;29120;52.006;6.020;2023-05-10T08:13:18;15.80;99.90
43524;DHT22;29120;52.006;6.020;2023-05-10T08:15:43;15.80;99.90
43524;DHT22;29120;52.006;6.020;2023-05-10T08:18:09;16.00;99.90
43524;DHT22;29120;52.006;6.020;2023-05-10T08:20:34;16.00;99.90
43524;DHT22;29120;52.006;6.020;2023-05-10T08:23:00;16.10;99.90
43524;DHT22;29120;52.006;6.020;2023-05-10T08:25:25;16.10;99.90
43524;DHT22;29120;52.006;6.020;2023-05-10T08:27:50;16.30;99.90
43524;DHT22;29120;52.006;6.020;2023-05-10T08:30:16;16.50;99.90
43524;DHT22;29120;52.006;6.020;2023-05-10T08:32:42;16.60;99.90
43524;DHT22;29120;52.006;6.020;2023-05-10T08:35:08;16.70;99.90
43524;DHT22;29120;52.006;6.020;2023-05-10T08:37:33;16.80;99.90
43524;DHT22;29120;52.006;6.020;2023-05-10T08:39:58;16.80;99.90
43524;DHT22;29120;52.006;6.020;2023-05-10T08:42:24;16.90;99.90
43524;DHT22;29120;52.006;6.020;2023-05-10T08:44:51;16.90;99.90
43524;DHT22;29120;52.006;6.020;2023-05-10T08:47:17;17.00;99.90
43524;DHT22;29120;52.006;6.020;2023-05-10T08:49:43;17.10;99.90
43524;DHT22;29120;52.006;6.020;2023-05-10T08:52:09;17.10;99.90
43524;DHT22;29120;52.006;6.020;2023-05-10T08:54:36;17.20;99.90
43524;DHT22;29120;52.006;6.020;2023-05-10T08:57:02;17.20;99.90
43524;DHT22;29120;52.006;6.020;2023-05-10T08:59:28;17.10;99.90
43524;DHT22;29120;52.006;6.020;2023-05-10T09:01:54;17.00;99.90
43524;DHT22;29120;52.006;6.020;2023-05-10T09:04:20;16.70;99.90
43524;DHT22;29120;52.006;6.020;2023-05-10T09:06:46;16.60;99.90
43524;DHT22;29120;52.006;6.020;2023-05-10T09:09:12;16.40;99.90
43524;DHT22;29120;52.006;6.020;2023-05-10T09:11:37;16.20;99.90
43524;DHT22;29120;52.006;6.020;2023-05-10T09:14:03;16.00;99.90
43524;DHT22;29120;52.006;6.020;2023-05-10T09:16:28;16.00;99.90
43524;DHT22;29120;52.006;6.020;2023-05-10T09:18:54;16.00;99.90
43524;DHT22;29120;52.006;6.020;2023-05-10T09:21:19;16.00;99.90
43524;DHT22;29120;52.006;6.020;2023-05-10T09:23:46;16.20;99.90
43524;DHT22;29120;52.006;6.020;2023-05-10T09:26:12;16.40;99.90
43524;DHT22;29120;52.006;6.020;2023-05-10T09:28:53;16.60;99.90
43524;DHT22;29120;52.006;6.020;2023-05-10T09:31:19;16.60;99.90
43524;DHT22;29120;52.006;6.020;2023-05-10T09:33:46;16.60;99.90
43524;DHT22;29120;52.006;6.020;2023-05-10T09:36:11;16.60;99.90
43524;DHT22;29120;52.006;6.020;2023-05-10T09:38:47;16.80;99.90
43524;DHT22;29120;52.006;6.020;2023-05-10T09:41:17;17.10;99.90
43524;DHT22;29120;52.006;6.020;2023-05-10T09:43:42;17.40;99.90
43524;DHT22;29120;52.006;6.020;2023-05-10T09:46:08;17.80;99.90
43524;DHT22;29120;52.006;6.020;2023-05-10T09:48:34;18.10;99.90
43524;DHT22;29120;52.006;6.020;2023-05-10T09:51:05;18.50;99.90
43524;DHT22;29120;52.006;6.020;2023-05-10T09:53:30;18.60;99.90
43524;DHT22;29120;52.006;6.020;2023-05-10T09:55:56;18.60;99.90
43524;DHT22;29120;52.006;6.020;2023-05-10T09:58:21;18.50;99.90
43524;DHT22;29120;52.006;6.020;2023-05-10T10:00:47;18.50;99.90
43524;DHT22;29120;52.006;6.020;2023-05-10T10:03:13;18.50;99.90
43524;DHT22;29120;52.006;6.020;2023-05-10T10:05:40;18.70;99.90
43524;DHT22;29120;52.006;6.020;2023-05-10T10:08:06;19.10;99.90
43524;DHT22;29120;52.006;6.020;2023-05-10T10:10:32;19.50;99.90
43524;DHT22;29120;52.006;6.020;2023-05-10T10:12:58;19.90;99.90
43524;DHT22;29120;52.006;6.020;2023-05-10T10:15:24;20.30;99.90
43524;DHT22;29120;52.006;6.020;2023-05-10T10:17:50;20.60;99.90
43524;DHT22;29120;52.006;6.020;2023-05-10T10:20:16;20.40;99.90
43524;DHT22;29120;52.006;6.020;2023-05-10T10:22:42;20.10;99.90
43524;DHT22;29120;52.006;6.020;2023-05-10T10:25:11;19.80;99.90
43524;DHT22;29120;52.006;6.020;2023-05-10T10:32:53;19.20;99.90
43524;DHT22;29120;52.006;6.020;2023-05-10T10:35:25;19.20;99.90
43524;DHT22;29120;52.006;6.020;2023-05-10T10:37:51;19.00;99.90
43524;DHT22;29120;52.006;6.020;2023-05-10T10:40:26;18.90;99.90
43524;DHT22;29120;52.006;6.020;2023-05-10T10:42:52;18.70;99.90
43524;DHT22;29120;52.006;6.020;2023-05-10T10:45:19;18.50;99.90
43524;DHT22;29120;52.006;6.020;2023-05-10T10:47:45;18.30;99.90
43524;DHT22;29120;52.006;6.020;2023-05-10T10:50:10;18.20;99.90
43524;DHT22;29120;52.006;6.020;2023-05-10T10:52:38;18.20;99.90
43524;DHT22;29120;52.006;6.020;2023-05-10T10:55:08;18.10;99.90
43524;DHT22;29120;52.006;6.020;2023-05-10T11:02:47;18.00;99.90
43524;DHT22;29120;52.006;6.020;2023-05-10T11:07:58;18.20;99.90
43524;DHT22;29120;52.006;6.020;2023-05-10T11:10:25;18.70;99.90
43524;DHT22;29120;52.006;6.020;2023-05-10T11:13:09;18.90;99.90
43524;DHT22;29120;52.006;6.020;2023-05-10T11:15:38;19.00;99.90
43524;DHT22;29120;52.006;6.020;2023-05-10T11:18:17;19.10;99.90
43524;DHT22;29120;52.006;6.020;2023-05-10T11:20:43;19.00;99.90
43524;DHT22;29120;52.006;6.020;2023-05-10T11:23:12;18.90;99.90
43524;DHT22;29120;52.006;6.020;2023-05-10T11:25:41;18.80;99.90
43524;DHT22;29120;52.006;6.020;2023-05-10T11:28:07;18.60;99.90
43524;DHT22;29120;52.006;6.020;2023-05-10T11:30:33;18.50;99.90
43524;DHT22;29120;52.006;6.020;2023-05-10T11:32:58;18.40;99.90
43524;DHT22;29120;52.006;6.020;2023-05-10T11:35:24;18.50;99.90
43524;DHT22;29120;52.006;6.020;2023-05-10T11:37:52;18.50;99.90
43524;DHT22;29120;52.006;6.020;2023-05-10T11:40:18;18.50;99.90
43524;DHT22;29120;52.006;6.020;2023-05-10T11:42:44;18.60;99.90
43524;DHT22;29120;52.006;6.020;2023-05-10T11:45:10;18.60;99.90
43524;DHT22;29120;52.006;6.020;2023-05-10T11:47:35;18.60;99.90
43524;DHT22;29120;52.006;6.020;2023-05-10T11:50:02;18.60;99.90
43524;DHT22;29120;52.006;6.020;2023-05-10T11:52:28;18.60;99.90
43524;DHT22;29120;52.006;6.020;2023-05-10T11:54:54;18.60;99.90
43524;DHT22;29120;52.006;6.020;2023-05-10T11:57:20;18.40;99.90
43524;DHT22;29120;52.006;6.020;2023-05-10T11:59:46;18.40;99.90
43524;DHT22;29120;52.006;6.020;2023-05-10T12:02:13;18.30;99.90
43524;DHT22;29120;52.006;6.020;2023-05-10T12:04:38;18.20;99.90
43524;DHT22;29120;52.006;6.020;2023-05-10T12:07:04;18.20;99.90
43524;DHT22;29120;52.006;6.020;2023-05-10T12:09:30;18.20;99.90
43524;DHT22;29120;52.006;6.020;2023-05-10T12:11:55;18.20;99.90
43524;DHT22;29120;52.006;6.020;2023-05-10T12:14:22;18.20;99.90
43524;DHT22;29120;52.006;6.020;2023-05-10T12:16:47;18.20;99.90
43524;DHT22;29120;52.006;6.020;2023-05-10T12:19:13;18.30;99.90
43524;DHT22;29120;52.006;6.020;2023-05-10T12:21:43;18.40;99.90
43524;DHT22;29120;52.006;6.020;2023-05-10T12:24:09;18.60;99.90
43524;DHT22;29120;52.006;6.020;2023-05-10T12:26:36;18.70;99.90
43524;DHT22;29120;52.006;6.020;2023-05-10T12:31:57;18.70;99.90
43524;DHT22;29120;52.006;6.020;2023-05-10T12:34:24;18.70;99.90
43524;DHT22;29120;52.006;6.020;2023-05-10T12:36:50;18.60;99.90
43524;DHT22;29120;52.006;6.020;2023-05-10T12:39:15;18.60;99.90
43524;DHT22;29120;52.006;6.020;2023-05-10T12:41:41;18.60;99.90
43524;DHT22;29120;52.006;6.020;2023-05-10T12:44:06;18.90;99.90
43524;DHT22;29120;52.006;6.020;2023-05-10T12:46:32;19.20;99.90
43524;DHT22;29120;52.006;6.020;2023-05-10T12:48:57;19.60;99.90
43524;DHT22;29120;52.006;6.020;2023-05-10T12:51:23;19.90;99.90
43524;DHT22;29120;52.006;6.020;2023-05-10T12:53:48;20.20;99.90
43524;DHT22;29120;52.006;6.020;2023-05-10T12:56:14;20.40;99.90
43524;DHT22;29120;52.006;6.020;2023-05-10T12:58:39;20.60;99.90
43524;DHT22;29120;52.006;6.020;2023-05-10T13:01:05;20.70;99.90
43524;DHT22;29120;52.006;6.020;2023-05-10T13:03:31;20.70;99.60
43524;DHT22;29120;52.006;6.020;2023-05-10T13:05:56;20.50;99.30
43524;DHT22;29120;52.006;6.020;2023-05-10T13:08:22;20.50;99.10
43524;DHT22;29120;52.006;6.020;2023-05-10T13:10:47;20.40;99.50
43524;DHT22;29120;52.006;6.020;2023-05-10T13:13:13;20.20;99.20
43524;DHT22;29120;52.006;6.020;2023-05-10T13:15:39;20.00;99.40
43524;DHT22;29120;52.006;6.020;2023-05-10T13:18:04;19.90;99.60
43524;DHT22;29120;52.006;6.020;2023-05-10T13:20:30;19.90;99.90
43524;DHT22;29120;52.006;6.020;2023-05-10T13:22:55;19.80;99.90
43524;DHT22;29120;52.006;6.020;2023-05-10T13:25:21;19.70;99.70
43524;DHT22;29120;52.006;6.020;2023-05-10T13:27:46;19.60;99.70
43524;DHT22;29120;52.006;6.020;2023-05-10T13:30:12;19.70;99.70
43524;DHT22;29120;52.006;6.020;2023-05-10T13:32:37;19.80;99.50
43524;DHT22;29120;52.006;6.020;2023-05-10T13:35:03;20.10;99.40
43524;DHT22;29120;52.006;6.020;2023-05-10T13:37:29;20.20;99.10
43524;DHT22;29120;52.006;6.020;2023-05-10T13:39:55;20.30;98.70
43524;DHT22;29120;52.006;6.020;2023-05-10T13:42:21;20.40;98.50
43524;DHT22;29120;52.006;6.020;2023-05-10T13:44:47;20.70;98.70
43524;DHT22;29120;52.006;6.020;2023-05-10T13:47:12;20.90;98.00
43524;DHT22;29120;52.006;6.020;2023-05-10T13:49:38;20.90;97.10
43524;DHT22;29120;52.006;6.020;2023-05-10T13:52:03;20.70;96.90
43524;DHT22;29120;52.006;6.020;2023-05-10T13:54:34;20.50;96.90
43524;DHT22;29120;52.006;6.020;2023-05-10T13:57:00;20.20;96.90
43524;DHT22;29120;52.006;6.020;2023-05-10T13:59:26;19.90;97.10
43524;DHT22;29120;52.006;6.020;2023-05-10T14:01:51;19.60;97.30
43524;DHT22;29120;52.006;6.020;2023-05-10T14:04:17;19.40;97.70
43524;DHT22;29120;52.006;6.020;2023-05-10T14:06:42;19.20;98.00
43524;DHT22;29120;52.006;6.020;2023-05-10T14:09:08;19.10;98.30
43524;DHT22;29120;52.006;6.020;2023-05-10T14:11:33;18.90;98.30
43524;DHT22;29120;52.006;6.020;2023-05-10T14:13:59;18.80;98.60
43524;DHT22;29120;52.006;6.020;2023-05-10T14:16:24;18.90;98.80
43524;DHT22;29120;52.006;6.020;2023-05-10T14:18:50;18.90;98.80
43524;DHT22;29120;52.006;6.020;2023-05-10T14:21:15;18.90;98.70
43524;DHT22;29120;52.006;6.020;2023-05-10T14:23:41;19.00;98.70
43524;DHT22;29120;52.006;6.020;2023-05-10T14:26:06;19.10;98.80
43524;DHT22;29120;52.006;6.020;2023-05-10T14:28:32;19.20;98.70
43524;DHT22;29120;52.006;6.020;2023-05-10T14:30:57;19.20;98.70
43524;DHT22;29120;52.006;6.020;2023-05-10T14:33:24;19.00;98.70
43524;DHT22;29120;52.006;6.020;2023-05-10T14:35:49;18.80;98.80
43524;DHT22;29120;52.006;6.020;2023-05-10T14:38:15;18.70;99.00
43524;DHT22;29120;52.006;6.020;2023-05-10T14:40:40;18.60;99.20
43524;DHT22;29120;52.006;6.020;2023-05-10T14:43:06;18.50;99.10
43524;DHT22;29120;52.006;6.020;2023-05-10T14:45:31;18.40;99.50
43524;DHT22;29120;52.006;6.020;2023-05-10T14:47:57;18.30;99.40
43524;DHT22;29120;52.006;6.020;2023-05-10T14:50:22;18.40;99.60
43524;DHT22;29120;52.006;6.020;2023-05-10T14:52:48;18.40;99.90
43524;DHT22;29120;52.006;6.020;2023-05-10T14:55:14;18.40;99.80
43524;DHT22;29120;52.006;6.020;2023-05-10T14:57:40;18.40;99.90
43524;DHT22;29120;52.006;6.020;2023-05-10T15:00:05;18.40;99.90
43524;DHT22;29120;52.006;6.020;2023-05-10T15:02:31;18.40;99.90
43524;DHT22;29120;52.006;6.020;2023-05-10T15:04:56;18.30;99.90
43524;DHT22;29120;52.006;6.020;2023-05-10T15:07:23;18.30;99.90
43524;DHT22;29120;52.006;6.020;2023-05-10T15:09:49;18.20;99.90
43524;DHT22;29120;52.006;6.020;2023-05-10T15:12:15;18.30;99.90
43524;DHT22;29120;52.006;6.020;2023-05-10T15:14:40;18.40;99.90
43524;DHT22;29120;52.006;6.020;2023-05-10T15:17:06;18.30;99.90
43524;DHT22;29120;52.006;6.020;2023-05-10T15:19:32;18.10;99.90
43524;DHT22;29120;52.006;6.020;2023-05-10T15:21:58;18.10;99.90
43524;DHT22;29120;52.006;6.020;2023-05-10T15:24:24;18.20;99.90
43524;DHT22;29120;52.006;6.020;2023-05-10T15:26:49;18.10;99.90
43524;DHT22;29120;52.006;6.020;2023-05-10T15:29:15;18.00;99.90
43524;DHT22;29120;52.006;6.020;2023-05-10T15:31:45;18.00;99.90
43524;DHT22;29120;52.006;6.020;2023-05-10T15:34:11;18.00;99.90
43524;DHT22;29120;52.006;6.020;2023-05-10T15:36:36;18.00;99.90
43524;DHT22;29120;52.006;6.020;2023-05-10T15:39:02;18.00;99.90
43524;DHT22;29120;52.006;6.020;2023-05-10T15:41:28;18.00;99.90
43524;DHT22;29120;52.006;6.020;2023-05-10T15:43:54;18.00;99.90
43524;DHT22;29120;52.006;6.020;2023-05-10T15:46:19;18.00;99.90
43524;DHT22;29120;52.006;6.020;2023-05-10T15:48:45;18.00;99.90